Terminal Aerodrome Forecast
Issued by NWS Atlanta, GA

Home | Current Version | Previous Version | Text Only | Print | Product List | Glossary On
Versions: 1 2 3 4 5 6 7 8 9 10 11 12 13 14 15 16 17 18 19 20 21 22 23 24 25 26 27 28 29 30 31 32 33 34 35 36 37 38 39 40 41 42 43 44
000
FTUS42 KFFC 281256 AAA
TAFATL
TAF AMD
KATL 281256Z 2813/2918 11010KT 4SM BR OVC004
     FM281500 11010KT 5SM BR BKN009
     FM281700 09010KT P6SM SCT010 BKN020
     FM282200 10008KT P6SM SCT040 BKN250
     FM290900 10006KT P6SM BKN010 BKN025
     FM291200 12008KT P6SM VCSH BKN010 OVC025 PROB30 2912/2918 6SM
      -SHRA SCT010 OVC025=

USA.gov is the U.S. government's official web portal to all federal, state and local government web resources and services.